createdAt,value
2023-02-03T00:03:42.723Z,1.50
2023-02-03T00:09:46.167Z,1.13
2023-02-03T00:15:49.681Z,1.13
2023-02-03T00:21:54.447Z,1.65
2023-02-03T00:27:57.962Z,1.30
2023-02-03T00:34:01.427Z,1.10
2023-02-03T00:40:06.585Z,1.52
2023-02-03T00:46:10.037Z,1.50
2023-02-03T00:52:13.457Z,1.95
2023-02-03T00:58:18.618Z,0.90
2023-02-03T01:04:22.150Z,1.20
2023-02-03T01:10:26.095Z,1.10
2023-02-03T01:16:31.714Z,1.00
2023-02-03T01:22:35.173Z,1.52
2023-02-03T01:28:38.723Z,1.60
2023-02-03T01:34:43.454Z,0.95
2023-02-03T01:40:46.944Z,1.15
2023-02-03T01:46:51.513Z,0.88
2023-02-03T01:52:59.044Z,1.38
2023-02-03T01:59:02.722Z,1.15
2023-02-03T02:05:07.714Z,1.05
2023-02-03T02:11:12.461Z,0.88
2023-02-03T02:17:22.739Z,0.73
2023-02-03T02:23:37.709Z,0.98
2023-02-03T02:29:59.843Z,0.60
2023-02-03T02:36:09.859Z,0.90
2023-02-03T02:42:17.469Z,0.70
2023-02-03T02:48:24.046Z,0.70
2023-02-03T02:54:29.839Z,0.50
2023-02-03T03:00:33.724Z,1.08
2023-02-03T03:06:39.465Z,0.70
2023-02-03T03:12:47.393Z,0.85
2023-02-03T03:18:53.090Z,0.90
2023-02-03T03:25:00.254Z,0.70
2023-02-03T03:31:05.264Z,0.70
2023-02-03T03:37:12.729Z,0.60
2023-02-03T03:43:17.568Z,0.90
2023-02-03T03:49:24.472Z,0.77
2023-02-03T03:55:29.564Z,1.10
2023-02-03T04:01:33.703Z,0.80
2023-02-03T04:07:42.994Z,0.90
2023-02-03T04:13:46.450Z,0.77
2023-02-03T04:19:50.080Z,0.90
2023-02-03T04:25:55.070Z,1.02
2023-02-03T04:31:58.501Z,1.20
2023-02-03T04:38:01.878Z,0.80
2023-02-03T04:44:06.886Z,0.70
2023-02-03T04:50:10.769Z,0.60
2023-02-03T04:56:15.686Z,0.63
2023-02-03T05:02:20.704Z,0.90
2023-02-03T05:08:24.433Z,0.98
2023-02-03T05:14:28.178Z,0.90
2023-02-03T05:20:33.025Z,0.80
2023-02-03T05:26:36.647Z,0.90
2023-02-03T05:32:40.059Z,1.23
2023-02-03T05:38:44.897Z,0.60
2023-02-03T05:44:48.326Z,0.82
2023-02-03T05:50:51.718Z,1.00
2023-02-03T05:56:56.505Z,0.90
2023-02-03T06:03:00.860Z,0.73
2023-02-03T06:09:05.728Z,0.75
2023-02-03T06:15:11.161Z,0.98
2023-02-03T06:21:14.627Z,1.13
2023-02-03T06:27:18.260Z,1.52
2023-02-03T06:33:23.460Z,2.17
2023-02-03T06:39:26.928Z,1.48
2023-02-03T06:45:30.321Z,2.58
2023-02-03T06:51:35.067Z,1.90
2023-02-03T06:57:44.323Z,1.10
2023-02-03T07:03:48.150Z,1.58
2023-02-03T07:09:53.167Z,1.70
2023-02-03T07:15:56.676Z,1.70
2023-02-03T07:22:00.205Z,1.10
2023-02-03T07:28:05.075Z,1.50
2023-02-03T07:34:08.603Z,1.30
2023-02-03T07:40:12.776Z,1.13
2023-02-03T07:46:17.705Z,1.42
2023-02-03T07:52:22.038Z,1.08
2023-02-03T07:58:25.569Z,1.50
2023-02-03T08:04:30.486Z,1.15
2023-02-03T08:10:33.962Z,1.13
2023-02-03T08:16:37.639Z,1.42
2023-02-03T08:22:42.845Z,1.77
2023-02-03T08:28:49.842Z,1.05
2023-02-03T08:34:54.224Z,1.65
2023-02-03T08:40:58.968Z,1.08
2023-02-03T08:47:03.701Z,1.38
2023-02-03T08:53:07.103Z,2.00
2023-02-03T08:59:11.969Z,0.95
2023-02-03T09:05:18.047Z,0.90
2023-02-03T09:11:21.653Z,0.82
2023-02-03T09:17:26.596Z,1.08
2023-02-03T09:23:29.971Z,1.25
2023-02-03T09:29:33.425Z,1.20
2023-02-03T09:35:38.177Z,0.98
2023-02-03T09:41:53.047Z,1.30
2023-02-03T09:47:58.853Z,1.10
2023-02-03T09:54:07.067Z,1.27
2023-02-03T10:00:16.425Z,1.50
2023-02-03T10:06:24.199Z,1.27
2023-02-03T10:12:36.922Z,1.40
2023-02-03T10:18:42.939Z,1.13
2023-02-03T10:24:49.383Z,1.52
2023-02-03T10:30:57.618Z,1.00
2023-02-03T10:37:02.851Z,1.13
2023-02-03T10:43:24.160Z,1.17
2023-02-03T10:49:30.138Z,1.25
2023-02-03T10:55:33.670Z,1.00
2023-02-03T11:01:42.002Z,1.38
2023-02-03T11:07:47.167Z,1.02
2023-02-03T11:13:55.124Z,1.60
2023-02-03T11:20:01.978Z,1.10
2023-02-03T11:26:15.344Z,0.98
2023-02-03T11:32:20.211Z,0.93
2023-02-03T11:38:36.685Z,1.40
2023-02-03T11:44:41.618Z,1.20
2023-02-03T11:50:48.208Z,1.25
2023-02-03T11:56:59.074Z,1.23
2023-02-03T12:03:31.395Z,1.13
2023-02-03T12:09:41.944Z,1.17
2023-02-03T12:15:51.110Z,0.80
2023-02-03T12:21:59.173Z,1.42
2023-02-03T12:28:08.764Z,1.58
2023-02-03T12:34:16.977Z,1.45
2023-02-03T12:40:23.999Z,1.38
2023-02-03T12:46:29.830Z,1.40
2023-02-03T12:52:35.340Z,0.90
2023-02-03T12:58:41.999Z,1.48
2023-02-03T13:04:48.507Z,1.57
2023-02-03T13:10:53.797Z,1.20
2023-02-03T13:17:00.489Z,1.58
2023-02-03T13:23:07.109Z,0.90
2023-02-03T13:29:25.411Z,1.30
2023-02-03T13:35:37.050Z,1.35
2023-02-03T13:41:44.783Z,1.17
2023-02-03T13:47:48.817Z,2.08
2023-02-03T13:54:00.594Z,1.83
2023-02-03T14:00:04.992Z,1.42
2023-02-03T14:06:12.329Z,1.45
2023-02-03T14:12:43.024Z,1.73
2023-02-03T14:18:48.151Z,2.00
2023-02-03T14:24:51.922Z,1.60
2023-02-03T14:31:16.110Z,1.42
2023-02-03T14:37:23.204Z,1.00
2023-02-03T14:43:32.977Z,2.30
2023-02-03T14:49:46.788Z,1.90
2023-02-03T14:55:56.949Z,2.03
2023-02-03T15:02:12.003Z,1.77
2023-02-03T15:08:36.182Z,1.90
2023-02-03T15:14:40.948Z,2.40
2023-02-03T15:20:48.281Z,2.33
2023-02-03T15:26:52.678Z,2.28
2023-02-03T15:33:03.106Z,1.38
2023-02-03T15:39:14.777Z,1.80
2023-02-03T15:45:23.575Z,1.80
2023-02-03T15:51:29.579Z,2.38
2023-02-03T15:57:34.626Z,1.80
2023-02-03T16:03:41.256Z,2.03
2023-02-03T16:09:46.103Z,2.83
2023-02-03T16:16:03.828Z,2.03
2023-02-03T16:22:07.536Z,2.65
2023-02-03T16:28:36.598Z,4.20
2023-02-03T16:34:57.566Z,3.30
2023-02-03T16:41:18.706Z,4.60
2023-02-03T16:47:44.060Z,4.80
2023-02-03T16:53:48.368Z,9.15
2023-02-03T16:59:51.961Z,5.82
2023-02-03T17:05:57.429Z,5.43
2023-02-03T17:12:03.815Z,4.90
2023-02-03T17:18:07.372Z,6.03
2023-02-03T17:24:12.540Z,5.80
2023-02-03T17:30:16.368Z,6.00
2023-02-03T17:36:21.656Z,5.07
2023-02-03T17:55:09.387Z,4.45
2023-02-03T18:01:16.286Z,4.40
2023-02-03T18:07:19.786Z,3.22
2023-02-03T18:13:26.199Z,3.60
2023-02-03T18:19:31.314Z,4.55
2023-02-03T18:25:36.596Z,4.85
2023-02-03T18:31:41.083Z,5.03
2023-02-03T18:37:46.049Z,5.43
2023-02-03T18:43:49.903Z,5.20
2023-02-03T18:49:53.356Z,5.05
2023-02-03T18:55:58.176Z,6.00
2023-02-03T19:02:03.211Z,6.57
2023-02-03T19:08:06.745Z,6.70
2023-02-03T19:14:11.607Z,6.03
2023-02-03T19:20:15.095Z,6.45
2023-02-03T19:26:18.798Z,6.15
2023-02-03T19:32:23.844Z,5.63
2023-02-03T19:38:27.611Z,6.10
2023-02-03T19:44:31.269Z,6.47
2023-02-03T19:50:37.450Z,6.80
2023-02-03T19:56:41.406Z,6.68
2023-02-03T20:02:44.954Z,7.20
2023-02-03T20:08:49.697Z,6.10
2023-02-03T20:14:53.425Z,7.28
2023-02-03T20:20:57.565Z,7.03
2023-02-03T20:27:02.949Z,5.68
2023-02-03T20:33:06.337Z,5.50
2023-02-03T20:39:16.420Z,6.03
2023-02-03T20:45:22.569Z,5.68
2023-02-03T20:51:26.903Z,5.88
2023-02-03T20:57:30.295Z,5.57
2023-02-03T21:03:53.201Z,6.00
2023-02-03T21:09:57.812Z,5.72
2023-02-03T21:16:03.461Z,5.30
2023-02-03T21:22:18.106Z,6.13
2023-02-03T21:28:25.620Z,5.32
2023-02-03T21:34:29.984Z,4.72
2023-02-03T21:40:35.549Z,5.40
2023-02-03T21:46:38.933Z,5.75
2023-02-03T21:52:42.344Z,6.00
2023-02-03T21:58:48.567Z,6.47
2023-02-03T22:04:52.008Z,7.10
2023-02-03T22:10:55.776Z,6.35
2023-02-03T22:17:00.570Z,5.97
2023-02-03T22:23:04.027Z,4.55
2023-02-03T22:29:07.615Z,5.30
2023-02-03T22:35:12.781Z,5.88
2023-02-03T22:41:16.175Z,5.57
2023-02-03T22:47:19.520Z,5.68
2023-02-03T22:53:24.261Z,6.40
2023-02-03T22:59:27.856Z,5.50
2023-02-03T23:05:31.557Z,6.57
2023-02-03T23:11:36.531Z,5.28
2023-02-03T23:17:40.023Z,4.70
2023-02-03T23:23:43.405Z,4.68
2023-02-03T23:29:48.157Z,4.25
2023-02-03T23:35:51.516Z,3.80
2023-02-03T23:41:55.156Z,3.20
2023-02-03T23:47:59.929Z,2.95
2023-02-03T23:54:03.745Z,2.95
